sensor_id;sensor_type;location;lat;lon;timestamp;P1;durP1;ratioP1;P2;durP2;ratioP2
10586;SDS011;5341;47.606;7.576;2023-12-07T00:00:46;6.75;;;6.15;;
10586;SDS011;5341;47.606;7.576;2023-12-07T00:03:14;12.43;;;6.88;;
10586;SDS011;5341;47.606;7.576;2023-12-07T00:05:42;7.15;;;6.45;;
10586;SDS011;5341;47.606;7.576;2023-12-07T00:08:09;8.63;;;6.40;;
10586;SDS011;5341;47.606;7.576;2023-12-07T00:10:37;6.95;;;6.25;;
10586;SDS011;5341;47.606;7.576;2023-12-07T00:13:07;8.00;;;7.10;;
10586;SDS011;5341;47.606;7.576;2023-12-07T00:15:34;7.45;;;6.68;;
10586;SDS011;5341;47.606;7.576;2023-12-07T00:18:02;8.32;;;7.00;;
10586;SDS011;5341;47.606;7.576;2023-12-07T00:20:30;8.43;;;7.10;;
10586;SDS011;5341;47.606;7.576;2023-12-07T00:22:58;7.18;;;6.47;;
10586;SDS011;5341;47.606;7.576;2023-12-07T00:25:27;8.63;;;7.20;;
10586;SDS011;5341;47.606;7.576;2023-12-07T00:27:54;9.02;;;7.47;;
10586;SDS011;5341;47.606;7.576;2023-12-07T00:30:23;8.85;;;7.88;;
10586;SDS011;5341;47.606;7.576;2023-12-07T00:32:52;7.88;;;6.95;;
10586;SDS011;5341;47.606;7.576;2023-12-07T00:35:20;7.47;;;6.75;;
10586;SDS011;5341;47.606;7.576;2023-12-07T00:37:48;7.97;;;7.18;;
10586;SDS011;5341;47.606;7.576;2023-12-07T00:40:16;9.25;;;7.03;;
10586;SDS011;5341;47.606;7.576;2023-12-07T00:42:44;9.30;;;7.35;;
10586;SDS011;5341;47.606;7.576;2023-12-07T00:45:11;8.18;;;7.38;;
10586;SDS011;5341;47.606;7.576;2023-12-07T00:47:41;7.43;;;6.63;;
10586;SDS011;5341;47.606;7.576;2023-12-07T00:50:11;7.82;;;7.03;;
10586;SDS011;5341;47.606;7.576;2023-12-07T00:52:39;11.05;;;8.20;;
10586;SDS011;5341;47.606;7.576;2023-12-07T00:55:07;10.68;;;8.85;;
10586;SDS011;5341;47.606;7.576;2023-12-07T00:57:35;12.38;;;8.77;;
10586;SDS011;5341;47.606;7.576;2023-12-07T01:00:02;10.32;;;8.88;;
10586;SDS011;5341;47.606;7.576;2023-12-07T01:02:31;10.30;;;8.70;;
10586;SDS011;5341;47.606;7.576;2023-12-07T01:05:03;12.02;;;9.20;;
10586;SDS011;5341;47.606;7.576;2023-12-07T01:07:31;10.60;;;8.25;;
10586;SDS011;5341;47.606;7.576;2023-12-07T01:09:58;10.15;;;8.45;;
10586;SDS011;5341;47.606;7.576;2023-12-07T01:12:27;9.75;;;8.10;;
10586;SDS011;5341;47.606;7.576;2023-12-07T01:14:54;10.40;;;8.20;;
10586;SDS011;5341;47.606;7.576;2023-12-07T01:17:22;9.73;;;8.15;;
10586;SDS011;5341;47.606;7.576;2023-12-07T01:19:49;10.98;;;8.45;;
10586;SDS011;5341;47.606;7.576;2023-12-07T01:22:18;8.18;;;7.32;;
10586;SDS011;5341;47.606;7.576;2023-12-07T01:24:46;10.35;;;8.00;;
10586;SDS011;5341;47.606;7.576;2023-12-07T01:27:13;9.93;;;7.95;;
10586;SDS011;5341;47.606;7.576;2023-12-07T01:29:47;9.63;;;8.18;;
10586;SDS011;5341;47.606;7.576;2023-12-07T01:32:15;9.77;;;8.30;;
10586;SDS011;5341;47.606;7.576;2023-12-07T01:34:43;9.75;;;7.80;;
10586;SDS011;5341;47.606;7.576;2023-12-07T01:37:11;10.50;;;8.40;;
10586;SDS011;5341;47.606;7.576;2023-12-07T01:39:42;9.60;;;8.25;;
10586;SDS011;5341;47.606;7.576;2023-12-07T01:42:10;9.77;;;8.50;;
10586;SDS011;5341;47.606;7.576;2023-12-07T01:44:37;8.60;;;7.63;;
10586;SDS011;5341;47.606;7.576;2023-12-07T01:47:07;10.80;;;8.15;;
10586;SDS011;5341;47.606;7.576;2023-12-07T01:49:37;9.20;;;7.88;;
10586;SDS011;5341;47.606;7.576;2023-12-07T01:52:05;9.52;;;7.55;;
10586;SDS011;5341;47.606;7.576;2023-12-07T01:54:34;9.60;;;8.27;;
10586;SDS011;5341;47.606;7.576;2023-12-07T01:57:04;10.45;;;8.60;;
10586;SDS011;5341;47.606;7.576;2023-12-07T01:59:32;9.50;;;8.20;;
10586;SDS011;5341;47.606;7.576;2023-12-07T02:02:01;9.45;;;8.45;;
10586;SDS011;5341;47.606;7.576;2023-12-07T02:04:29;10.98;;;8.00;;
10586;SDS011;5341;47.606;7.576;2023-12-07T02:06:58;9.13;;;7.95;;
10586;SDS011;5341;47.606;7.576;2023-12-07T02:09:30;9.68;;;8.57;;
10586;SDS011;5341;47.606;7.576;2023-12-07T02:11:58;9.57;;;8.50;;
10586;SDS011;5341;47.606;7.576;2023-12-07T02:14:29;9.50;;;8.50;;
10586;SDS011;5341;47.606;7.576;2023-12-07T02:16:57;9.48;;;8.43;;
10586;SDS011;5341;47.606;7.576;2023-12-07T02:19:44;11.50;;;9.30;;
10586;SDS011;5341;47.606;7.576;2023-12-07T02:22:24;10.20;;;8.60;;
10586;SDS011;5341;47.606;7.576;2023-12-07T02:25:00;10.27;;;8.85;;
10586;SDS011;5341;47.606;7.576;2023-12-07T02:27:36;11.13;;;9.18;;
10586;SDS011;5341;47.606;7.576;2023-12-07T02:30:05;11.63;;;8.98;;
10586;SDS011;5341;47.606;7.576;2023-12-07T02:32:36;10.80;;;8.88;;
10586;SDS011;5341;47.606;7.576;2023-12-07T02:35:04;10.40;;;8.60;;
10586;SDS011;5341;47.606;7.576;2023-12-07T02:37:33;10.10;;;9.00;;
10586;SDS011;5341;47.606;7.576;2023-12-07T02:40:05;10.98;;;9.00;;
10586;SDS011;5341;47.606;7.576;2023-12-07T02:42:39;11.75;;;9.75;;
10586;SDS011;5341;47.606;7.576;2023-12-07T02:45:09;12.18;;;9.40;;
10586;SDS011;5341;47.606;7.576;2023-12-07T02:47:38;12.75;;;10.15;;
10586;SDS011;5341;47.606;7.576;2023-12-07T02:50:06;12.15;;;9.75;;
10586;SDS011;5341;47.606;7.576;2023-12-07T02:52:35;11.80;;;9.45;;
10586;SDS011;5341;47.606;7.576;2023-12-07T02:55:02;11.15;;;9.48;;
10586;SDS011;5341;47.606;7.576;2023-12-07T02:57:32;10.35;;;9.07;;
10586;SDS011;5341;47.606;7.576;2023-12-07T03:00:02;11.57;;;9.32;;
10586;SDS011;5341;47.606;7.576;2023-12-07T03:02:32;10.52;;;8.82;;
10586;SDS011;5341;47.606;7.576;2023-12-07T03:05:00;10.88;;;8.90;;
10586;SDS011;5341;47.606;7.576;2023-12-07T03:07:28;10.45;;;8.98;;
10586;SDS011;5341;47.606;7.576;2023-12-07T03:09:55;11.43;;;9.52;;
10586;SDS011;5341;47.606;7.576;2023-12-07T03:12:23;11.48;;;9.43;;
10586;SDS011;5341;47.606;7.576;2023-12-07T03:14:50;12.00;;;9.52;;
10586;SDS011;5341;47.606;7.576;2023-12-07T03:17:19;11.50;;;9.65;;
10586;SDS011;5341;47.606;7.576;2023-12-07T03:19:47;12.18;;;9.82;;
10586;SDS011;5341;47.606;7.576;2023-12-07T03:22:14;13.18;;;10.23;;
10586;SDS011;5341;47.606;7.576;2023-12-07T03:24:45;11.70;;;10.13;;
10586;SDS011;5341;47.606;7.576;2023-12-07T03:27:14;12.65;;;10.25;;
10586;SDS011;5341;47.606;7.576;2023-12-07T03:29:41;15.68;;;11.07;;
10586;SDS011;5341;47.606;7.576;2023-12-07T03:32:09;15.07;;;12.32;;
10586;SDS011;5341;47.606;7.576;2023-12-07T03:34:38;15.63;;;11.57;;
10586;SDS011;5341;47.606;7.576;2023-12-07T03:37:08;14.38;;;11.45;;
10586;SDS011;5341;47.606;7.576;2023-12-07T03:39:36;15.30;;;11.95;;
10586;SDS011;5341;47.606;7.576;2023-12-07T03:42:04;14.90;;;11.95;;
10586;SDS011;5341;47.606;7.576;2023-12-07T03:44:32;14.07;;;11.65;;
10586;SDS011;5341;47.606;7.576;2023-12-07T03:46:59;14.75;;;11.45;;
10586;SDS011;5341;47.606;7.576;2023-12-07T03:49:27;15.40;;;12.07;;
10586;SDS011;5341;47.606;7.576;2023-12-07T03:51:56;13.93;;;11.25;;
10586;SDS011;5341;47.606;7.576;2023-12-07T03:54:25;15.88;;;11.38;;
10586;SDS011;5341;47.606;7.576;2023-12-07T03:56:53;14.65;;;11.18;;
10586;SDS011;5341;47.606;7.576;2023-12-07T03:59:21;14.13;;;11.63;;
10586;SDS011;5341;47.606;7.576;2023-12-07T04:01:48;11.15;;;9.68;;
10586;SDS011;5341;47.606;7.576;2023-12-07T04:04:16;10.73;;;9.50;;
10586;SDS011;5341;47.606;7.576;2023-12-07T04:06:46;11.45;;;10.25;;
10586;SDS011;5341;47.606;7.576;2023-12-07T04:09:16;12.90;;;10.45;;
10586;SDS011;5341;47.606;7.576;2023-12-07T04:11:44;12.98;;;10.95;;
10586;SDS011;5341;47.606;7.576;2023-12-07T04:14:12;11.65;;;10.10;;
10586;SDS011;5341;47.606;7.576;2023-12-07T04:16:41;10.88;;;9.57;;
10586;SDS011;5341;47.606;7.576;2023-12-07T04:19:10;11.05;;;9.70;;
10586;SDS011;5341;47.606;7.576;2023-12-07T04:21:37;10.35;;;9.20;;
10586;SDS011;5341;47.606;7.576;2023-12-07T04:24:05;10.48;;;9.30;;
10586;SDS011;5341;47.606;7.576;2023-12-07T04:26:34;11.20;;;9.50;;
10586;SDS011;5341;47.606;7.576;2023-12-07T04:29:02;10.80;;;8.90;;
10586;SDS011;5341;47.606;7.576;2023-12-07T04:31:31;11.05;;;9.30;;
10586;SDS011;5341;47.606;7.576;2023-12-07T04:34:02;9.77;;;8.73;;
10586;SDS011;5341;47.606;7.576;2023-12-07T04:36:30;10.57;;;8.60;;
10586;SDS011;5341;47.606;7.576;2023-12-07T04:38:57;9.82;;;8.82;;
10586;SDS011;5341;47.606;7.576;2023-12-07T04:41:28;10.85;;;9.23;;
10586;SDS011;5341;47.606;7.576;2023-12-07T04:43:57;11.45;;;8.98;;
10586;SDS011;5341;47.606;7.576;2023-12-07T04:46:25;9.50;;;8.52;;
10586;SDS011;5341;47.606;7.576;2023-12-07T04:49:00;9.93;;;8.73;;
10586;SDS011;5341;47.606;7.576;2023-12-07T04:51:27;11.68;;;9.82;;
10586;SDS011;5341;47.606;7.576;2023-12-07T04:53:55;11.02;;;9.60;;
10586;SDS011;5341;47.606;7.576;2023-12-07T04:56:23;10.95;;;9.25;;
10586;SDS011;5341;47.606;7.576;2023-12-07T04:58:54;10.02;;;8.23;;
10586;SDS011;5341;47.606;7.576;2023-12-07T05:01:23;10.23;;;8.98;;
10586;SDS011;5341;47.606;7.576;2023-12-07T05:03:51;11.05;;;9.20;;
10586;SDS011;5341;47.606;7.576;2023-12-07T05:06:18;10.85;;;8.77;;
10586;SDS011;5341;47.606;7.576;2023-12-07T05:08:47;10.18;;;9.07;;
10586;SDS011;5341;47.606;7.576;2023-12-07T05:11:18;10.43;;;9.05;;
10586;SDS011;5341;47.606;7.576;2023-12-07T05:13:46;9.98;;;8.98;;
10586;SDS011;5341;47.606;7.576;2023-12-07T05:16:15;10.02;;;8.85;;
10586;SDS011;5341;47.606;7.576;2023-12-07T05:18:44;9.93;;;8.93;;
10586;SDS011;5341;47.606;7.576;2023-12-07T05:21:13;9.90;;;8.90;;
10586;SDS011;5341;47.606;7.576;2023-12-07T05:23:40;9.50;;;8.40;;
10586;SDS011;5341;47.606;7.576;2023-12-07T05:26:08;9.82;;;8.82;;
10586;SDS011;5341;47.606;7.576;2023-12-07T05:28:36;10.63;;;9.27;;
10586;SDS011;5341;47.606;7.576;2023-12-07T05:31:03;9.48;;;8.48;;
10586;SDS011;5341;47.606;7.576;2023-12-07T05:33:33;9.90;;;8.45;;
10586;SDS011;5341;47.606;7.576;2023-12-07T05:36:02;10.27;;;9.05;;
10586;SDS011;5341;47.606;7.576;2023-12-07T05:38:33;10.00;;;8.98;;
10586;SDS011;5341;47.606;7.576;2023-12-07T05:41:00;10.88;;;9.20;;
10586;SDS011;5341;47.606;7.576;2023-12-07T05:43:28;9.73;;;8.73;;
10586;SDS011;5341;47.606;7.576;2023-12-07T05:45:57;9.93;;;8.93;;
10586;SDS011;5341;47.606;7.576;2023-12-07T05:48:25;10.18;;;9.07;;
10586;SDS011;5341;47.606;7.576;2023-12-07T05:50:52;11.88;;;9.13;;
10586;SDS011;5341;47.606;7.576;2023-12-07T05:53:25;10.43;;;9.13;;
10586;SDS011;5341;47.606;7.576;2023-12-07T05:55:52;11.32;;;10.00;;
10586;SDS011;5341;47.606;7.576;2023-12-07T05:58:20;12.00;;;10.70;;
10586;SDS011;5341;47.606;7.576;2023-12-07T06:00:48;15.70;;;11.73;;
10586;SDS011;5341;47.606;7.576;2023-12-07T06:03:16;14.50;;;11.98;;
10586;SDS011;5341;47.606;7.576;2023-12-07T06:05:43;17.70;;;13.02;;
10586;SDS011;5341;47.606;7.576;2023-12-07T06:08:12;14.75;;;12.05;;
10586;SDS011;5341;47.606;7.576;2023-12-07T06:10:41;14.77;;;12.35;;
10586;SDS011;5341;47.606;7.576;2023-12-07T06:13:09;13.90;;;12.00;;
10586;SDS011;5341;47.606;7.576;2023-12-07T06:15:38;14.00;;;11.73;;
10586;SDS011;5341;47.606;7.576;2023-12-07T06:18:06;16.20;;;12.43;;
10586;SDS011;5341;47.606;7.576;2023-12-07T06:20:34;14.82;;;11.95;;
10586;SDS011;5341;47.606;7.576;2023-12-07T06:23:01;13.65;;;11.95;;
10586;SDS011;5341;47.606;7.576;2023-12-07T06:25:29;15.00;;;10.90;;
10586;SDS011;5341;47.606;7.576;2023-12-07T06:28:00;13.43;;;11.02;;
10586;SDS011;5341;47.606;7.576;2023-12-07T06:30:27;13.40;;;11.32;;
10586;SDS011;5341;47.606;7.576;2023-12-07T06:32:56;12.27;;;10.50;;
10586;SDS011;5341;47.606;7.576;2023-12-07T06:35:24;13.80;;;11.20;;
10586;SDS011;5341;47.606;7.576;2023-12-07T06:37:51;14.75;;;11.40;;
10586;SDS011;5341;47.606;7.576;2023-12-07T06:40:19;14.55;;;12.00;;
10586;SDS011;5341;47.606;7.576;2023-12-07T06:42:47;12.90;;;10.25;;
10586;SDS011;5341;47.606;7.576;2023-12-07T06:45:17;13.30;;;11.80;;
10586;SDS011;5341;47.606;7.576;2023-12-07T06:47:45;14.43;;;11.73;;
10586;SDS011;5341;47.606;7.576;2023-12-07T06:50:14;12.50;;;10.70;;
10586;SDS011;5341;47.606;7.576;2023-12-07T06:52:43;14.38;;;10.88;;
10586;SDS011;5341;47.606;7.576;2023-12-07T06:55:16;11.52;;;10.35;;
10586;SDS011;5341;47.606;7.576;2023-12-07T06:57:47;12.85;;;11.52;;
10586;SDS011;5341;47.606;7.576;2023-12-07T07:00:15;12.23;;;10.93;;
10586;SDS011;5341;47.606;7.576;2023-12-07T07:02:47;11.98;;;10.35;;
10586;SDS011;5341;47.606;7.576;2023-12-07T07:05:17;13.02;;;11.30;;
10586;SDS011;5341;47.606;7.576;2023-12-07T07:07:46;13.38;;;11.88;;
10586;SDS011;5341;47.606;7.576;2023-12-07T07:10:14;13.75;;;11.93;;
10586;SDS011;5341;47.606;7.576;2023-12-07T07:12:43;13.00;;;11.52;;
10586;SDS011;5341;47.606;7.576;2023-12-07T07:15:11;13.48;;;11.73;;
10586;SDS011;5341;47.606;7.576;2023-12-07T07:17:40;12.75;;;11.13;;
10586;SDS011;5341;47.606;7.576;2023-12-07T07:20:07;14.57;;;11.68;;
10586;SDS011;5341;47.606;7.576;2023-12-07T07:22:35;12.70;;;11.10;;
10586;SDS011;5341;47.606;7.576;2023-12-07T07:25:03;14.48;;;12.07;;
10586;SDS011;5341;47.606;7.576;2023-12-07T07:27:31;14.52;;;12.07;;
10586;SDS011;5341;47.606;7.576;2023-12-07T07:29:59;15.65;;;12.80;;
10586;SDS011;5341;47.606;7.576;2023-12-07T07:32:30;15.05;;;12.50;;
10586;SDS011;5341;47.606;7.576;2023-12-07T07:35:07;13.63;;;11.88;;
10586;SDS011;5341;47.606;7.576;2023-12-07T07:37:37;14.77;;;12.13;;
10586;SDS011;5341;47.606;7.576;2023-12-07T07:40:05;13.52;;;11.40;;
10586;SDS011;5341;47.606;7.576;2023-12-07T07:42:33;12.80;;;11.10;;
10586;SDS011;5341;47.606;7.576;2023-12-07T07:45:02;12.52;;;10.68;;
10586;SDS011;5341;47.606;7.576;2023-12-07T07:47:30;12.93;;;10.68;;
10586;SDS011;5341;47.606;7.576;2023-12-07T07:49:59;13.63;;;11.70;;
10586;SDS011;5341;47.606;7.576;2023-12-07T07:52:31;12.98;;;10.70;;
10586;SDS011;5341;47.606;7.576;2023-12-07T07:55:00;12.13;;;10.20;;
10586;SDS011;5341;47.606;7.576;2023-12-07T07:57:30;13.60;;;10.63;;
10586;SDS011;5341;47.606;7.576;2023-12-07T07:59:58;12.20;;;10.55;;
10586;SDS011;5341;47.606;7.576;2023-12-07T08:02:26;11.68;;;10.32;;
10586;SDS011;5341;47.606;7.576;2023-12-07T08:04:53;12.43;;;10.38;;
10586;SDS011;5341;47.606;7.576;2023-12-07T08:07:23;12.05;;;10.52;;
10586;SDS011;5341;47.606;7.576;2023-12-07T08:09:53;12.23;;;10.57;;
10586;SDS011;5341;47.606;7.576;2023-12-07T08:12:20;10.90;;;9.77;;
10586;SDS011;5341;47.606;7.576;2023-12-07T08:14:49;11.27;;;10.07;;
10586;SDS011;5341;47.606;7.576;2023-12-07T08:17:16;11.80;;;9.93;;
10586;SDS011;5341;47.606;7.576;2023-12-07T08:19:46;10.80;;;9.70;;
10586;SDS011;5341;47.606;7.576;2023-12-07T08:22:16;11.68;;;10.45;;
10586;SDS011;5341;47.606;7.576;2023-12-07T08:24:46;11.02;;;9.88;;
10586;SDS011;5341;47.606;7.576;2023-12-07T08:27:14;11.77;;;10.07;;
10586;SDS011;5341;47.606;7.576;2023-12-07T08:29:42;11.98;;;10.68;;
10586;SDS011;5341;47.606;7.576;2023-12-07T08:32:11;12.02;;;10.73;;
10586;SDS011;5341;47.606;7.576;2023-12-07T08:34:40;12.38;;;10.07;;
10586;SDS011;5341;47.606;7.576;2023-12-07T08:37:07;13.15;;;10.07;;
10586;SDS011;5341;47.606;7.576;2023-12-07T08:39:36;12.10;;;10.52;;
10586;SDS011;5341;47.606;7.576;2023-12-07T08:42:05;11.43;;;9.98;;
10586;SDS011;5341;47.606;7.576;2023-12-07T08:44:33;10.95;;;9.85;;
10586;SDS011;5341;47.606;7.576;2023-12-07T08:47:01;11.10;;;9.80;;
10586;SDS011;5341;47.606;7.576;2023-12-07T08:49:29;10.95;;;9.82;;
10586;SDS011;5341;47.606;7.576;2023-12-07T08:52:00;11.93;;;10.65;;
10586;SDS011;5341;47.606;7.576;2023-12-07T08:54:29;11.05;;;9.95;;
10586;SDS011;5341;47.606;7.576;2023-12-07T08:56:56;9.85;;;8.85;;
10586;SDS011;5341;47.606;7.576;2023-12-07T08:59:25;10.45;;;9.27;;
10586;SDS011;5341;47.606;7.576;2023-12-07T09:01:52;10.70;;;8.93;;
10586;SDS011;5341;47.606;7.576;2023-12-07T09:04:20;11.20;;;8.73;;
10586;SDS011;5341;47.606;7.576;2023-12-07T09:06:47;9.65;;;8.63;;
10586;SDS011;5341;47.606;7.576;2023-12-07T09:09:15;9.63;;;8.60;;
10586;SDS011;5341;47.606;7.576;2023-12-07T09:11:43;9.32;;;8.32;;
10586;SDS011;5341;47.606;7.576;2023-12-07T09:14:14;9.30;;;8.30;;
10586;SDS011;5341;47.606;7.576;2023-12-07T09:16:54;9.55;;;8.55;;
10586;SDS011;5341;47.606;7.576;2023-12-07T09:19:23;9.30;;;8.40;;
10586;SDS011;5341;47.606;7.576;2023-12-07T09:21:52;9.52;;;7.95;;
10586;SDS011;5341;47.606;7.576;2023-12-07T09:24:21;8.93;;;8.00;;
10586;SDS011;5341;47.606;7.576;2023-12-07T09:26:48;8.93;;;7.95;;
10586;SDS011;5341;47.606;7.576;2023-12-07T09:29:16;8.95;;;7.88;;
10586;SDS011;5341;47.606;7.576;2023-12-07T09:31:55;9.00;;;8.10;;
10586;SDS011;5341;47.606;7.576;2023-12-07T09:34:23;8.70;;;7.63;;
10586;SDS011;5341;47.606;7.576;2023-12-07T09:39:46;8.20;;;7.38;;
10586;SDS011;5341;47.606;7.576;2023-12-07T09:42:16;8.00;;;7.20;;
10586;SDS011;5341;47.606;7.576;2023-12-07T09:44:48;8.02;;;7.22;;
10586;SDS011;5341;47.606;7.576;2023-12-07T09:47:21;8.52;;;7.65;;
10586;SDS011;5341;47.606;7.576;2023-12-07T09:49:49;9.20;;;8.27;;
10586;SDS011;5341;47.606;7.576;2023-12-07T09:52:19;8.52;;;7.65;;
10586;SDS011;5341;47.606;7.576;2023-12-07T09:54:48;8.48;;;7.57;;
10586;SDS011;5341;47.606;7.576;2023-12-07T09:57:17;9.23;;;7.90;;
10586;SDS011;5341;47.606;7.576;2023-12-07T09:59:45;9.23;;;8.02;;
10586;SDS011;5341;47.606;7.576;2023-12-07T10:02:14;8.32;;;7.43;;
10586;SDS011;5341;47.606;7.576;2023-12-07T10:04:47;8.38;;;7.57;;
10586;SDS011;5341;47.606;7.576;2023-12-07T10:07:14;10.23;;;7.95;;
10586;SDS011;5341;47.606;7.576;2023-12-07T10:09:42;9.05;;;7.75;;
10586;SDS011;5341;47.606;7.576;2023-12-07T10:12:09;8.82;;;8.02;;
10586;SDS011;5341;47.606;7.576;2023-12-07T10:14:38;9.82;;;8.48;;
10586;SDS011;5341;47.606;7.576;2023-12-07T10:17:06;8.93;;;8.02;;
10586;SDS011;5341;47.606;7.576;2023-12-07T10:19:33;9.15;;;8.25;;
10586;SDS011;5341;47.606;7.576;2023-12-07T10:22:12;9.55;;;8.10;;
10586;SDS011;5341;47.606;7.576;2023-12-07T10:24:41;10.40;;;8.48;;
10586;SDS011;5341;47.606;7.576;2023-12-07T10:27:09;9.02;;;8.10;;
10586;SDS011;5341;47.606;7.576;2023-12-07T10:29:37;8.38;;;7.35;;
10586;SDS011;5341;47.606;7.576;2023-12-07T10:32:05;8.93;;;7.45;;
10586;SDS011;5341;47.606;7.576;2023-12-07T10:34:33;9.80;;;8.25;;
10586;SDS011;5341;47.606;7.576;2023-12-07T10:37:07;8.43;;;7.43;;
10586;SDS011;5341;47.606;7.576;2023-12-07T10:39:35;8.63;;;7.72;;
10586;SDS011;5341;47.606;7.576;2023-12-07T10:42:03;8.75;;;7.85;;
10586;SDS011;5341;47.606;7.576;2023-12-07T10:44:36;8.90;;;8.00;;
10586;SDS011;5341;47.606;7.576;2023-12-07T10:47:09;9.18;;;7.90;;
10586;SDS011;5341;47.606;7.576;2023-12-07T10:49:38;8.60;;;7.80;;
10586;SDS011;5341;47.606;7.576;2023-12-07T10:52:12;10.07;;;7.53;;
10586;SDS011;5341;47.606;7.576;2023-12-07T10:54:43;9.32;;;8.30;;
10586;SDS011;5341;47.606;7.576;2023-12-07T10:57:17;8.95;;;8.07;;
10586;SDS011;5341;47.606;7.576;2023-12-07T10:59:48;8.85;;;7.95;;
10586;SDS011;5341;47.606;7.576;2023-12-07T11:02:17;12.30;;;7.68;;
10586;SDS011;5341;47.606;7.576;2023-12-07T11:04:48;9.10;;;8.20;;
10586;SDS011;5341;47.606;7.576;2023-12-07T11:07:19;9.07;;;8.18;;
10586;SDS011;5341;47.606;7.576;2023-12-07T11:09:57;9.82;;;8.45;;
10586;SDS011;5341;47.606;7.576;2023-12-07T11:12:33;11.05;;;8.70;;
10586;SDS011;5341;47.606;7.576;2023-12-07T11:15:13;10.80;;;8.07;;
10586;SDS011;5341;47.606;7.576;2023-12-07T11:17:51;9.25;;;7.88;;
10586;SDS011;5341;47.606;7.576;2023-12-07T11:20:21;9.88;;;8.30;;
10586;SDS011;5341;47.606;7.576;2023-12-07T11:23:00;8.63;;;7.78;;
10586;SDS011;5341;47.606;7.576;2023-12-07T11:25:32;9.25;;;8.35;;
10586;SDS011;5341;47.606;7.576;2023-12-07T11:28:00;10.05;;;8.60;;
10586;SDS011;5341;47.606;7.576;2023-12-07T11:30:30;8.88;;;7.90;;
10586;SDS011;5341;47.606;7.576;2023-12-07T11:32:59;8.80;;;7.90;;
10586;SDS011;5341;47.606;7.576;2023-12-07T11:35:27;8.40;;;7.55;;
10586;SDS011;5341;47.606;7.576;2023-12-07T11:38:06;8.23;;;7.35;;
10586;SDS011;5341;47.606;7.576;2023-12-07T11:40:37;9.65;;;8.10;;
10586;SDS011;5341;47.606;7.576;2023-12-07T11:43:06;8.98;;;7.90;;
10586;SDS011;5341;47.606;7.576;2023-12-07T11:45:38;8.85;;;7.82;;
10586;SDS011;5341;47.606;7.576;2023-12-07T11:48:05;8.27;;;7.47;;
10586;SDS011;5341;47.606;7.576;2023-12-07T11:50:34;8.70;;;7.80;;
10586;SDS011;5341;47.606;7.576;2023-12-07T11:53:02;8.65;;;7.60;;
10586;SDS011;5341;47.606;7.576;2023-12-07T11:55:34;8.43;;;7.53;;
10586;SDS011;5341;47.606;7.576;2023-12-07T11:58:01;7.15;;;6.45;;
10586;SDS011;5341;47.606;7.576;2023-12-07T12:00:29;8.80;;;7.80;;
10586;SDS011;5341;47.606;7.576;2023-12-07T12:02:56;8.60;;;7.70;;
10586;SDS011;5341;47.606;7.576;2023-12-07T12:05:24;8.73;;;7.82;;
10586;SDS011;5341;47.606;7.576;2023-12-07T12:07:51;8.80;;;7.90;;
10586;SDS011;5341;47.606;7.576;2023-12-07T12:10:19;8.15;;;7.30;;
10586;SDS011;5341;47.606;7.576;2023-12-07T12:12:51;8.65;;;7.43;;
10586;SDS011;5341;47.606;7.576;2023-12-07T12:15:20;8.73;;;7.57;;
10586;SDS011;5341;47.606;7.576;2023-12-07T12:17:47;8.27;;;7.30;;
10586;SDS011;5341;47.606;7.576;2023-12-07T12:20:15;9.32;;;7.82;;
10586;SDS011;5341;47.606;7.576;2023-12-07T12:22:43;8.25;;;7.45;;
10586;SDS011;5341;47.606;7.576;2023-12-07T12:25:11;8.65;;;7.75;;
10586;SDS011;5341;47.606;7.576;2023-12-07T12:27:39;8.57;;;7.38;;
10586;SDS011;5341;47.606;7.576;2023-12-07T12:30:10;9.07;;;7.20;;
10586;SDS011;5341;47.606;7.576;2023-12-07T12:32:43;8.77;;;7.65;;
10586;SDS011;5341;47.606;7.576;2023-12-07T12:35:10;9.00;;;8.10;;
10586;SDS011;5341;47.606;7.576;2023-12-07T12:37:40;9.60;;;8.13;;
10586;SDS011;5341;47.606;7.576;2023-12-07T12:40:10;9.27;;;8.27;;
10586;SDS011;5341;47.606;7.576;2023-12-07T12:42:41;9.98;;;8.00;;
10586;SDS011;5341;47.606;7.576;2023-12-07T12:45:12;11.18;;;9.02;;
10586;SDS011;5341;47.606;7.576;2023-12-07T12:47:41;9.73;;;8.73;;
10586;SDS011;5341;47.606;7.576;2023-12-07T12:50:10;10.73;;;8.75;;
10586;SDS011;5341;47.606;7.576;2023-12-07T12:52:39;10.80;;;9.02;;
10586;SDS011;5341;47.606;7.576;2023-12-07T12:55:07;9.57;;;8.50;;
10586;SDS011;5341;47.606;7.576;2023-12-07T12:57:37;9.55;;;8.25;;
10586;SDS011;5341;47.606;7.576;2023-12-07T13:00:05;8.90;;;7.90;;
10586;SDS011;5341;47.606;7.576;2023-12-07T13:02:35;9.57;;;8.00;;
10586;SDS011;5341;47.606;7.576;2023-12-07T13:05:04;10.25;;;8.02;;
10586;SDS011;5341;47.606;7.576;2023-12-07T13:07:32;9.20;;;7.97;;
10586;SDS011;5341;47.606;7.576;2023-12-07T13:10:01;9.90;;;7.85;;
10586;SDS011;5341;47.606;7.576;2023-12-07T13:12:29;8.00;;;7.20;;
10586;SDS011;5341;47.606;7.576;2023-12-07T13:15:01;8.50;;;7.60;;
10586;SDS011;5341;47.606;7.576;2023-12-07T13:17:29;8.25;;;7.40;;
10586;SDS011;5341;47.606;7.576;2023-12-07T13:20:00;10.55;;;7.22;;
10586;SDS011;5341;47.606;7.576;2023-12-07T13:22:27;8.73;;;7.82;;
10586;SDS011;5341;47.606;7.576;2023-12-07T13:24:56;8.25;;;7.45;;
10586;SDS011;5341;47.606;7.576;2023-12-07T13:27:24;8.43;;;7.38;;
10586;SDS011;5341;47.606;7.576;2023-12-07T13:29:51;8.32;;;7.15;;
10586;SDS011;5341;47.606;7.576;2023-12-07T13:32:18;8.15;;;7.35;;
10586;SDS011;5341;47.606;7.576;2023-12-07T13:34:46;9.65;;;8.43;;
10586;SDS011;5341;47.606;7.576;2023-12-07T13:37:14;8.52;;;7.63;;
10586;SDS011;5341;47.606;7.576;2023-12-07T13:39:42;8.13;;;7.32;;
10586;SDS011;5341;47.606;7.576;2023-12-07T13:42:10;9.80;;;8.15;;
10586;SDS011;5341;47.606;7.576;2023-12-07T13:44:37;8.88;;;7.97;;
10586;SDS011;5341;47.606;7.576;2023-12-07T13:47:06;9.18;;;7.80;;
10586;SDS011;5341;47.606;7.576;2023-12-07T13:49:33;9.23;;;8.30;;
10586;SDS011;5341;47.606;7.576;2023-12-07T13:52:04;8.98;;;7.82;;
10586;SDS011;5341;47.606;7.576;2023-12-07T13:54:33;8.77;;;7.88;;
10586;SDS011;5341;47.606;7.576;2023-12-07T13:57:01;9.27;;;8.27;;
10586;SDS011;5341;47.606;7.576;2023-12-07T13:59:29;8.98;;;8.05;;
10586;SDS011;5341;47.606;7.576;2023-12-07T14:01:57;9.85;;;7.97;;
10586;SDS011;5341;47.606;7.576;2023-12-07T14:04:25;9.60;;;7.82;;
10586;SDS011;5341;47.606;7.576;2023-12-07T14:06:52;8.70;;;7.80;;
10586;SDS011;5341;47.606;7.576;2023-12-07T14:09:20;10.27;;;8.10;;
10586;SDS011;5341;47.606;7.576;2023-12-07T14:11:49;14.35;;;7.88;;
10586;SDS011;5341;47.606;7.576;2023-12-07T14:14:17;9.60;;;7.85;;
10586;SDS011;5341;47.606;7.576;2023-12-07T14:16:45;9.57;;;7.03;;
10586;SDS011;5341;47.606;7.576;2023-12-07T14:19:12;8.95;;;7.63;;
10586;SDS011;5341;47.606;7.576;2023-12-07T14:21:41;9.98;;;7.50;;
10586;SDS011;5341;47.606;7.576;2023-12-07T14:24:10;9.73;;;8.10;;
10586;SDS011;5341;47.606;7.576;2023-12-07T14:26:37;8.85;;;7.63;;
10586;SDS011;5341;47.606;7.576;2023-12-07T14:29:07;9.20;;;7.63;;
10586;SDS011;5341;47.606;7.576;2023-12-07T14:31:41;8.98;;;7.63;;
10586;SDS011;5341;47.606;7.576;2023-12-07T14:34:08;7.80;;;7.03;;
10586;SDS011;5341;47.606;7.576;2023-12-07T14:36:36;9.05;;;7.95;;
10586;SDS011;5341;47.606;7.576;2023-12-07T14:39:04;8.82;;;7.82;;
10586;SDS011;5341;47.606;7.576;2023-12-07T14:41:32;11.05;;;7.95;;
10586;SDS011;5341;47.606;7.576;2023-12-07T14:44:01;8.23;;;7.43;;
10586;SDS011;5341;47.606;7.576;2023-12-07T14:46:30;10.43;;;7.60;;
10586;SDS011;5341;47.606;7.576;2023-12-07T14:48:57;8.32;;;7.53;;
10586;SDS011;5341;47.606;7.576;2023-12-07T14:51:24;8.43;;;7.47;;
10586;SDS011;5341;47.606;7.576;2023-12-07T14:53:52;9.27;;;8.00;;
10586;SDS011;5341;47.606;7.576;2023-12-07T14:56:19;9.23;;;8.23;;
10586;SDS011;5341;47.606;7.576;2023-12-07T14:58:48;9.35;;;7.80;;
10586;SDS011;5341;47.606;7.576;2023-12-07T15:01:15;8.73;;;7.75;;
10586;SDS011;5341;47.606;7.576;2023-12-07T15:03:45;8.50;;;7.18;;